ンジャメナ国際空港の過去48時間の天気

ンジャメナ国際空港 (Ndjamena)

現在時刻: 8/18 14:18 WAT (8/18 13:18 UTC) 以下の時間は現地時間です。

過去48時間のMETAR気象情報
時間 風向 風速(m/s) 視程 気温(℃) 湿度(%) 気圧(hPa) 天気現象
18 11:00 北北東 2 8000m 27 70 1010
18 10:00 北東 3 6000m 26 84 1011
18 09:00 4 4000m 24 94 1011 もや
18 08:00 北北東 2 8000m 22 100 1010 弱い雷雨
18 07:00 7 1500m 23 89 1011 雷雨
18 04:00 東南東 4 8000m 25 94 1009
18 01:00 南南西 4 8000m 25 94 1008
17 23:00 南西 3 8000m 26 89 1009
17 22:00 南南西 2 8000m 26 89 1009
17 21:00 西南西 2 8000m 26 89 1009
17 20:00 南西 2 8000m 26 89 1009
17 19:00 西南西 4 8000m 27 84 1009
17 18:00 西 3 8000m 28 79 1008
17 17:00 西 4 8000m 29 70 1008
17 15:00 西 5 8000m 30 70 1008
17 13:00 西 7 8000m 29 70 1010
17 12:00 西南西 6 8000m 27 79 1010
17 11:00 西 5 8000m 27 79 1012
17 10:00 西 7 8000m 27 79 1012
17 09:00 西 3 8000m 26 89 1012
17 08:00 西南西 4 8000m 26 89 1011
17 00:00 南西 3 8000m 25 89 1011
16 23:00 西南西 2 8000m 25 89 1012
16 22:00 西 2 8000m 25 89 1012
16 21:00 北西 2 8000m 25 94 1012
16 20:00 不定 1 8000m 25 94 1012
16 18:00 西北西 3 8000m 27 79 1011
16 17:00 西北西 3 8000m 27 79 1010
16 15:00 西 5 8000m 28 74 1011
FTTJ 181000Z 02004KT 020V090 8000 FEW026 27/21 Q1010 NOSIG
FTTJ 180900Z 04005KT 040V120 6000 FEW026 26/23 Q1011 NOSIG
FTTJ 180800Z 08007KT 4000 BR FEW020 FEW040CB 24/23 Q1011 RETS NOSIG
FTTJ 180700Z 03004KT 030V170 8000 -TSRA FEW020 FEW040CB 22/22 Q1010 NOSIG
FTTJ 180600Z 01013KT 1500 TSRA FEW020 FEW040CB 23/21 Q1011 TEMPO 3500 TSRA
FTTJ 180300Z 11007KT 110V180 8000 TS FEW020 FEW040CB 25/24 Q1009 TEMPO 4000 TSRA
FTTJ 180000Z 21007KT 8000 TS FEW020 FEW040CB 25/24 Q1008 TEMPO 4000 TSRA
FTTJ 172200Z 22005KT 8000 TS FEW020 FEW040CB 26/24 Q1009 TEMPO 4000 TSRA
FTTJ 172100Z 21004KT 8000 TS FEW020 FEW040CB 26/24 Q1009 NOSIG
FTTJ 172000Z 24004KT 240V300 8000 TS FEW020 FEW040CB 26/24 Q1009 NOSIG
FTTJ 171900Z 23004KT 8000 FEW020 26/24 Q1009 NOSIG
FTTJ 171800Z 25008KT 8000 FEW020 27/24 Q1009 NOSIG
FTTJ 171700Z 26006KT 8000 FEW030 28/24 Q1008 NOSIG
FTTJ 171600Z 27007KT 8000 SCT030 29/23 Q1008 NOSIG
FTTJ 171400Z 26010KT 260V320 8000 SCT030 30/24 Q1008 NOSIG
FTTJ 171200Z 27014KT 270V330 8000 SCT015 29/23 Q1010 NOSIG
FTTJ 171100Z 25012KT 250V320 8000 SCT020 27/23 Q1010 NOSIG
FTTJ 171000Z 28010KT 280V350 8000 SCT020 27/23 Q1012 NOSIG
FTTJ 170900Z 26013KT 260V340 8000 FEW020 27/23 Q1012 NOSIG
FTTJ 170800Z 28006KT 8000 FEW020 26/24 Q1012 NOSIG
FTTJ 170700Z 25007KT 8000 FEW020 26/24 Q1011 NOSIG
FTTJ 162300Z 23005KT 8000 FEW020 25/23 Q1011 NOSIG
FTTJ 162200Z 25003KT 8000 FEW020 25/23 Q1012 NOSIG
FTTJ 162100Z 28004KT 8000 FEW020 25/23 Q1012 NOSIG
FTTJ 162000Z 31004KT 8000 FEW020 25/24 Q1012 NOSIG
FTTJ 161900Z VRB02KT 8000 FEW020 25/24 Q1012 NOSIG
FTTJ 161700Z 29005KT 8000 FEW020 27/23 Q1011 NOSIG
FTTJ 161600Z 30005KT 8000 SCT020 27/23 Q1010 NOSIG
FTTJ 161400Z 28009KT 280V340 8000 SCT020 28/23 Q1011 NOSIG